sensor_id;sensor_type;location;lat;lon;timestamp;temperature;humidity
26342;DHT22;14054;50.108;8.640;2022-12-05T00:01:35;2.70;99.90
26342;DHT22;14054;50.108;8.640;2022-12-05T00:04:04;2.70;99.90
26342;DHT22;14054;50.108;8.640;2022-12-05T00:06:30;2.70;99.90
26342;DHT22;14054;50.108;8.640;2022-12-05T00:08:56;2.60;99.90
26342;DHT22;14054;50.108;8.640;2022-12-05T00:11:24;2.70;99.90
26342;DHT22;14054;50.108;8.640;2022-12-05T00:13:52;2.70;99.90
26342;DHT22;14054;50.108;8.640;2022-12-05T00:16:20;2.70;99.90
26342;DHT22;14054;50.108;8.640;2022-12-05T00:18:46;2.60;99.90
26342;DHT22;14054;50.108;8.640;2022-12-05T00:21:18;2.60;99.90
26342;DHT22;14054;50.108;8.640;2022-12-05T00:23:44;2.60;99.90
26342;DHT22;14054;50.108;8.640;2022-12-05T00:26:10;2.70;99.90
26342;DHT22;14054;50.108;8.640;2022-12-05T00:28:36;2.60;99.90
26342;DHT22;14054;50.108;8.640;2022-12-05T00:31:03;2.70;99.90
26342;DHT22;14054;50.108;8.640;2022-12-05T00:33:29;2.70;99.90
26342;DHT22;14054;50.108;8.640;2022-12-05T00:35:54;2.60;99.90
26342;DHT22;14054;50.108;8.640;2022-12-05T00:38:20;2.60;99.90
26342;DHT22;14054;50.108;8.640;2022-12-05T00:40:45;2.70;99.90
26342;DHT22;14054;50.108;8.640;2022-12-05T00:43:11;2.70;99.90
26342;DHT22;14054;50.108;8.640;2022-12-05T00:45:36;2.70;99.90
26342;DHT22;14054;50.108;8.640;2022-12-05T00:48:02;2.70;99.90
26342;DHT22;14054;50.108;8.640;2022-12-05T00:50:27;2.70;99.90
26342;DHT22;14054;50.108;8.640;2022-12-05T00:52:53;2.70;99.90
26342;DHT22;14054;50.108;8.640;2022-12-05T00:55:18;2.70;99.90
26342;DHT22;14054;50.108;8.640;2022-12-05T00:57:44;2.70;99.90
26342;DHT22;14054;50.108;8.640;2022-12-05T01:00:09;2.80;99.90
26342;DHT22;14054;50.108;8.640;2022-12-05T01:02:35;2.70;99.90
26342;DHT22;14054;50.108;8.640;2022-12-05T01:05:00;2.70;99.90
26342;DHT22;14054;50.108;8.640;2022-12-05T01:07:26;2.60;99.90
26342;DHT22;14054;50.108;8.640;2022-12-05T01:09:51;2.60;99.90
26342;DHT22;14054;50.108;8.640;2022-12-05T01:12:17;2.70;99.90
26342;DHT22;14054;50.108;8.640;2022-12-05T01:14:42;2.60;99.90
26342;DHT22;14054;50.108;8.640;2022-12-05T01:17:09;2.70;99.90
26342;DHT22;14054;50.108;8.640;2022-12-05T01:19:34;2.60;99.90
26342;DHT22;14054;50.108;8.640;2022-12-05T01:22:00;2.70;99.90
26342;DHT22;14054;50.108;8.640;2022-12-05T01:24:26;2.70;99.90
26342;DHT22;14054;50.108;8.640;2022-12-05T01:26:52;2.70;99.90
26342;DHT22;14054;50.108;8.640;2022-12-05T01:29:19;2.80;99.90
26342;DHT22;14054;50.108;8.640;2022-12-05T01:31:45;2.70;99.90
26342;DHT22;14054;50.108;8.640;2022-12-05T01:34:13;2.70;99.90
26342;DHT22;14054;50.108;8.640;2022-12-05T01:36:39;2.70;99.90
26342;DHT22;14054;50.108;8.640;2022-12-05T01:39:07;2.80;99.90
26342;DHT22;14054;50.108;8.640;2022-12-05T01:41:35;2.80;99.90
26342;DHT22;14054;50.108;8.640;2022-12-05T01:44:04;2.80;99.90
26342;DHT22;14054;50.108;8.640;2022-12-05T01:46:35;2.80;99.90
26342;DHT22;14054;50.108;8.640;2022-12-05T01:49:37;2.80;99.90
26342;DHT22;14054;50.108;8.640;2022-12-05T01:52:07;2.80;99.90
26342;DHT22;14054;50.108;8.640;2022-12-05T01:54:36;2.80;99.90
26342;DHT22;14054;50.108;8.640;2022-12-05T01:57:05;2.70;99.90
26342;DHT22;14054;50.108;8.640;2022-12-05T01:59:34;2.80;99.90
26342;DHT22;14054;50.108;8.640;2022-12-05T02:02:00;2.80;99.90
26342;DHT22;14054;50.108;8.640;2022-12-05T02:04:26;2.80;99.90
26342;DHT22;14054;50.108;8.640;2022-12-05T02:06:53;2.80;99.90
26342;DHT22;14054;50.108;8.640;2022-12-05T02:09:19;2.80;99.90
26342;DHT22;14054;50.108;8.640;2022-12-05T02:11:53;2.90;99.90
26342;DHT22;14054;50.108;8.640;2022-12-05T02:14:58;2.80;99.90
26342;DHT22;14054;50.108;8.640;2022-12-05T02:20:23;2.80;99.90
26342;DHT22;14054;50.108;8.640;2022-12-05T02:25:35;2.90;99.90
26342;DHT22;14054;50.108;8.640;2022-12-05T02:28:12;2.80;99.90
26342;DHT22;14054;50.108;8.640;2022-12-05T02:30:53;2.80;99.90
26342;DHT22;14054;50.108;8.640;2022-12-05T02:33:27;2.90;99.90
26342;DHT22;14054;50.108;8.640;2022-12-05T02:36:35;2.90;99.90
26342;DHT22;14054;50.108;8.640;2022-12-05T02:39:02;2.90;99.90
26342;DHT22;14054;50.108;8.640;2022-12-05T02:41:36;2.80;99.90
26342;DHT22;14054;50.108;8.640;2022-12-05T02:44:23;2.80;99.90
26342;DHT22;14054;50.108;8.640;2022-12-05T02:46:53;2.80;99.90
26342;DHT22;14054;50.108;8.640;2022-12-05T02:49:22;2.80;99.90
26342;DHT22;14054;50.108;8.640;2022-12-05T02:51:52;2.80;99.90
26342;DHT22;14054;50.108;8.640;2022-12-05T02:54:25;2.80;99.90
26342;DHT22;14054;50.108;8.640;2022-12-05T02:56:54;2.90;99.90
26342;DHT22;14054;50.108;8.640;2022-12-05T02:59:20;2.80;99.90
26342;DHT22;14054;50.108;8.640;2022-12-05T03:01:46;2.80;99.90
26342;DHT22;14054;50.108;8.640;2022-12-05T03:04:14;2.90;99.90
26342;DHT22;14054;50.108;8.640;2022-12-05T03:09:15;2.90;99.90
26342;DHT22;14054;50.108;8.640;2022-12-05T03:11:53;2.90;99.90
26342;DHT22;14054;50.108;8.640;2022-12-05T03:14:23;2.90;99.90
26342;DHT22;14054;50.108;8.640;2022-12-05T03:16:52;2.90;99.90
26342;DHT22;14054;50.108;8.640;2022-12-05T03:19:35;2.80;99.90
26342;DHT22;14054;50.108;8.640;2022-12-05T03:22:18;2.80;99.90
26342;DHT22;14054;50.108;8.640;2022-12-05T03:24:46;2.90;99.90
26342;DHT22;14054;50.108;8.640;2022-12-05T03:27:25;2.80;99.90
26342;DHT22;14054;50.108;8.640;2022-12-05T03:30:00;2.90;99.90
26342;DHT22;14054;50.108;8.640;2022-12-05T03:32:36;2.90;99.90
26342;DHT22;14054;50.108;8.640;2022-12-05T03:35:23;2.90;99.90
26342;DHT22;14054;50.108;8.640;2022-12-05T03:37:57;2.90;99.90
26342;DHT22;14054;50.108;8.640;2022-12-05T03:40:26;2.90;99.90
26342;DHT22;14054;50.108;8.640;2022-12-05T03:43:32;2.90;99.90
26342;DHT22;14054;50.108;8.640;2022-12-05T03:46:01;2.90;99.90
26342;DHT22;14054;50.108;8.640;2022-12-05T03:51:05;2.90;99.90
26342;DHT22;14054;50.108;8.640;2022-12-05T03:54:19;2.90;99.90
26342;DHT22;14054;50.108;8.640;2022-12-05T03:56:33;2.90;99.90
26342;DHT22;14054;50.108;8.640;2022-12-05T03:59:35;2.90;99.90
26342;DHT22;14054;50.108;8.640;2022-12-05T04:02:12;2.90;99.90
26342;DHT22;14054;50.108;8.640;2022-12-05T04:05:07;2.90;99.90
26342;DHT22;14054;50.108;8.640;2022-12-05T04:07:33;2.90;99.90
26342;DHT22;14054;50.108;8.640;2022-12-05T04:10:04;2.90;99.90
26342;DHT22;14054;50.108;8.640;2022-12-05T04:12:33;2.90;99.90
26342;DHT22;14054;50.108;8.640;2022-12-05T04:15:03;2.90;99.90
26342;DHT22;14054;50.108;8.640;2022-12-05T04:17:39;2.90;99.90
26342;DHT22;14054;50.108;8.640;2022-12-05T04:20:34;2.90;99.90
26342;DHT22;14054;50.108;8.640;2022-12-05T04:23:20;2.90;99.90
26342;DHT22;14054;50.108;8.640;2022-12-05T04:26:06;2.90;99.90
26342;DHT22;14054;50.108;8.640;2022-12-05T04:28:42;2.90;99.90
26342;DHT22;14054;50.108;8.640;2022-12-05T04:31:24;2.90;99.90
26342;DHT22;14054;50.108;8.640;2022-12-05T04:33:55;2.90;99.90
26342;DHT22;14054;50.108;8.640;2022-12-05T04:38:58;3.00;99.90
26342;DHT22;14054;50.108;8.640;2022-12-05T04:41:59;2.90;99.90
26342;DHT22;14054;50.108;8.640;2022-12-05T04:44:31;2.90;99.90
26342;DHT22;14054;50.108;8.640;2022-12-05T04:47:00;2.90;99.90
26342;DHT22;14054;50.108;8.640;2022-12-05T04:49:28;2.90;99.90
26342;DHT22;14054;50.108;8.640;2022-12-05T04:51:58;2.90;99.90
26342;DHT22;14054;50.108;8.640;2022-12-05T04:54:31;2.90;99.90
26342;DHT22;14054;50.108;8.640;2022-12-05T04:57:06;3.00;99.90
26342;DHT22;14054;50.108;8.640;2022-12-05T04:59:32;3.00;99.90
26342;DHT22;14054;50.108;8.640;2022-12-05T05:02:04;3.00;99.90
26342;DHT22;14054;50.108;8.640;2022-12-05T05:04:34;3.00;99.90
26342;DHT22;14054;50.108;8.640;2022-12-05T05:07:08;3.00;99.90
26342;DHT22;14054;50.108;8.640;2022-12-05T05:09:35;2.90;99.90
26342;DHT22;14054;50.108;8.640;2022-12-05T05:12:00;3.00;99.90
26342;DHT22;14054;50.108;8.640;2022-12-05T05:14:26;2.90;99.90
26342;DHT22;14054;50.108;8.640;2022-12-05T05:16:51;2.90;99.90
26342;DHT22;14054;50.108;8.640;2022-12-05T05:19:17;2.90;99.90
26342;DHT22;14054;50.108;8.640;2022-12-05T05:21:42;2.90;99.90
26342;DHT22;14054;50.108;8.640;2022-12-05T05:24:10;2.90;99.90
26342;DHT22;14054;50.108;8.640;2022-12-05T05:26:39;2.90;99.90
26342;DHT22;14054;50.108;8.640;2022-12-05T05:29:05;2.90;99.90
26342;DHT22;14054;50.108;8.640;2022-12-05T05:31:31;2.90;99.90
26342;DHT22;14054;50.108;8.640;2022-12-05T05:33:57;2.80;99.90
26342;DHT22;14054;50.108;8.640;2022-12-05T05:36:24;2.80;99.90
26342;DHT22;14054;50.108;8.640;2022-12-05T05:38:53;2.80;99.90
26342;DHT22;14054;50.108;8.640;2022-12-05T05:41:21;2.80;99.90
26342;DHT22;14054;50.108;8.640;2022-12-05T05:43:48;2.80;99.90
26342;DHT22;14054;50.108;8.640;2022-12-05T05:46:15;2.90;99.90
26342;DHT22;14054;50.108;8.640;2022-12-05T05:48:40;2.90;99.90
26342;DHT22;14054;50.108;8.640;2022-12-05T05:51:08;2.90;99.90
26342;DHT22;14054;50.108;8.640;2022-12-05T05:53:34;2.90;99.90
26342;DHT22;14054;50.108;8.640;2022-12-05T05:56:03;2.90;99.90
26342;DHT22;14054;50.108;8.640;2022-12-05T05:58:30;3.00;99.90
26342;DHT22;14054;50.108;8.640;2022-12-05T06:01:12;2.90;99.90
26342;DHT22;14054;50.108;8.640;2022-12-05T06:03:38;2.90;99.90
26342;DHT22;14054;50.108;8.640;2022-12-05T06:06:07;3.00;99.90
26342;DHT22;14054;50.108;8.640;2022-12-05T06:08:34;3.00;99.90
26342;DHT22;14054;50.108;8.640;2022-12-05T06:11:04;3.00;99.90
26342;DHT22;14054;50.108;8.640;2022-12-05T06:13:29;2.90;99.90
26342;DHT22;14054;50.108;8.640;2022-12-05T06:15:55;2.90;99.90
26342;DHT22;14054;50.108;8.640;2022-12-05T06:18:20;2.90;99.90
26342;DHT22;14054;50.108;8.640;2022-12-05T06:20:53;2.90;99.90
26342;DHT22;14054;50.108;8.640;2022-12-05T06:23:19;2.90;99.90
26342;DHT22;14054;50.108;8.640;2022-12-05T06:25:48;2.90;99.90
26342;DHT22;14054;50.108;8.640;2022-12-05T06:28:15;3.00;99.90
26342;DHT22;14054;50.108;8.640;2022-12-05T06:30:41;3.00;99.90
26342;DHT22;14054;50.108;8.640;2022-12-05T06:33:06;3.00;99.90
26342;DHT22;14054;50.108;8.640;2022-12-05T06:35:32;3.00;99.90
26342;DHT22;14054;50.108;8.640;2022-12-05T06:37:58;3.00;99.90
26342;DHT22;14054;50.108;8.640;2022-12-05T06:40:23;3.00;99.90
26342;DHT22;14054;50.108;8.640;2022-12-05T06:42:48;3.00;99.90
26342;DHT22;14054;50.108;8.640;2022-12-05T06:45:14;3.00;99.90
26342;DHT22;14054;50.108;8.640;2022-12-05T06:47:39;3.00;99.90
26342;DHT22;14054;50.108;8.640;2022-12-05T06:50:06;3.10;99.90
26342;DHT22;14054;50.108;8.640;2022-12-05T06:52:31;3.10;99.90
26342;DHT22;14054;50.108;8.640;2022-12-05T06:54:57;3.00;99.90
26342;DHT22;14054;50.108;8.640;2022-12-05T06:57:24;3.10;99.90
26342;DHT22;14054;50.108;8.640;2022-12-05T06:59:49;3.10;99.90
26342;DHT22;14054;50.108;8.640;2022-12-05T07:02:15;3.10;99.90
26342;DHT22;14054;50.108;8.640;2022-12-05T07:04:40;3.10;99.90
26342;DHT22;14054;50.108;8.640;2022-12-05T07:07:06;3.10;99.90
26342;DHT22;14054;50.108;8.640;2022-12-05T07:09:31;3.10;99.90
26342;DHT22;14054;50.108;8.640;2022-12-05T07:12:17;3.10;99.90
26342;DHT22;14054;50.108;8.640;2022-12-05T07:14:43;3.20;99.90
26342;DHT22;14054;50.108;8.640;2022-12-05T07:17:09;3.20;99.90
26342;DHT22;14054;50.108;8.640;2022-12-05T07:19:35;3.10;99.90
26342;DHT22;14054;50.108;8.640;2022-12-05T07:22:00;3.10;99.90
26342;DHT22;14054;50.108;8.640;2022-12-05T07:24:26;3.20;99.90
26342;DHT22;14054;50.108;8.640;2022-12-05T07:26:52;3.20;99.90
26342;DHT22;14054;50.108;8.640;2022-12-05T07:29:17;3.20;99.90
26342;DHT22;14054;50.108;8.640;2022-12-05T07:31:43;3.20;99.90
26342;DHT22;14054;50.108;8.640;2022-12-05T07:34:08;3.20;99.90
26342;DHT22;14054;50.108;8.640;2022-12-05T07:36:34;3.20;99.90
26342;DHT22;14054;50.108;8.640;2022-12-05T07:38:59;3.30;99.90
26342;DHT22;14054;50.108;8.640;2022-12-05T07:41:27;3.30;99.90
26342;DHT22;14054;50.108;8.640;2022-12-05T07:43:54;3.30;99.90
26342;DHT22;14054;50.108;8.640;2022-12-05T07:46:21;3.30;99.90
26342;DHT22;14054;50.108;8.640;2022-12-05T07:48:47;3.30;99.90
26342;DHT22;14054;50.108;8.640;2022-12-05T07:51:13;3.20;99.90
26342;DHT22;14054;50.108;8.640;2022-12-05T07:53:39;3.30;99.90
26342;DHT22;14054;50.108;8.640;2022-12-05T07:56:07;3.30;99.90
26342;DHT22;14054;50.108;8.640;2022-12-05T07:58:33;3.30;99.90
26342;DHT22;14054;50.108;8.640;2022-12-05T08:01:06;3.30;99.90
26342;DHT22;14054;50.108;8.640;2022-12-05T08:03:31;3.30;99.90
26342;DHT22;14054;50.108;8.640;2022-12-05T08:06:01;3.30;99.90
26342;DHT22;14054;50.108;8.640;2022-12-05T08:08:28;3.30;99.90
26342;DHT22;14054;50.108;8.640;2022-12-05T08:10:53;3.30;99.90
26342;DHT22;14054;50.108;8.640;2022-12-05T08:13:18;3.40;99.90
26342;DHT22;14054;50.108;8.640;2022-12-05T08:15:44;3.40;99.90
26342;DHT22;14054;50.108;8.640;2022-12-05T08:18:09;3.40;99.90
26342;DHT22;14054;50.108;8.640;2022-12-05T08:20:35;3.40;99.90
26342;DHT22;14054;50.108;8.640;2022-12-05T08:23:00;3.40;99.90
26342;DHT22;14054;50.108;8.640;2022-12-05T08:25:26;3.40;99.90
26342;DHT22;14054;50.108;8.640;2022-12-05T08:27:51;3.40;99.90
26342;DHT22;14054;50.108;8.640;2022-12-05T08:30:17;3.50;99.90
26342;DHT22;14054;50.108;8.640;2022-12-05T08:32:42;3.50;99.90
26342;DHT22;14054;50.108;8.640;2022-12-05T08:35:08;3.50;99.90
26342;DHT22;14054;50.108;8.640;2022-12-05T08:37:34;3.50;99.90
26342;DHT22;14054;50.108;8.640;2022-12-05T08:39:59;3.60;99.90
26342;DHT22;14054;50.108;8.640;2022-12-05T08:42:26;3.60;99.90
26342;DHT22;14054;50.108;8.640;2022-12-05T08:44:51;3.60;99.90
26342;DHT22;14054;50.108;8.640;2022-12-05T08:47:17;3.70;99.90
26342;DHT22;14054;50.108;8.640;2022-12-05T08:49:42;3.70;99.90
26342;DHT22;14054;50.108;8.640;2022-12-05T08:52:08;3.70;99.90
26342;DHT22;14054;50.108;8.640;2022-12-05T08:54:33;3.70;99.90
26342;DHT22;14054;50.108;8.640;2022-12-05T08:57:00;3.80;99.90
26342;DHT22;14054;50.108;8.640;2022-12-05T08:59:25;3.90;99.90
26342;DHT22;14054;50.108;8.640;2022-12-05T09:01:51;3.90;99.90
26342;DHT22;14054;50.108;8.640;2022-12-05T09:04:16;3.80;99.90
26342;DHT22;14054;50.108;8.640;2022-12-05T09:06:42;3.80;99.90
26342;DHT22;14054;50.108;8.640;2022-12-05T09:09:09;3.90;99.90
26342;DHT22;14054;50.108;8.640;2022-12-05T09:11:38;3.80;99.90
26342;DHT22;14054;50.108;8.640;2022-12-05T09:14:05;3.80;99.90
26342;DHT22;14054;50.108;8.640;2022-12-05T09:16:33;3.80;99.90
26342;DHT22;14054;50.108;8.640;2022-12-05T09:18:59;3.80;99.90
26342;DHT22;14054;50.108;8.640;2022-12-05T09:21:27;3.90;99.90
26342;DHT22;14054;50.108;8.640;2022-12-05T09:23:53;3.90;99.90
26342;DHT22;14054;50.108;8.640;2022-12-05T09:26:21;3.90;99.90
26342;DHT22;14054;50.108;8.640;2022-12-05T09:28:48;3.90;99.90
26342;DHT22;14054;50.108;8.640;2022-12-05T09:31:16;4.00;99.90
26342;DHT22;14054;50.108;8.640;2022-12-05T09:33:42;4.00;99.90
26342;DHT22;14054;50.108;8.640;2022-12-05T09:36:16;4.00;99.90
26342;DHT22;14054;50.108;8.640;2022-12-05T09:38:42;4.00;99.90
26342;DHT22;14054;50.108;8.640;2022-12-05T09:44:04;4.00;99.90
26342;DHT22;14054;50.108;8.640;2022-12-05T09:46:56;4.00;99.90
26342;DHT22;14054;50.108;8.640;2022-12-05T09:49:24;4.00;99.90
26342;DHT22;14054;50.108;8.640;2022-12-05T09:51:53;3.90;99.90
26342;DHT22;14054;50.108;8.640;2022-12-05T09:54:20;3.90;99.90
26342;DHT22;14054;50.108;8.640;2022-12-05T09:56:48;4.00;99.90
26342;DHT22;14054;50.108;8.640;2022-12-05T09:59:15;3.90;99.90
26342;DHT22;14054;50.108;8.640;2022-12-05T10:20:27;4.10;99.90
26342;DHT22;14054;50.108;8.640;2022-12-05T10:22:59;4.30;99.90
26342;DHT22;14054;50.108;8.640;2022-12-05T10:25:27;4.30;99.90
26342;DHT22;14054;50.108;8.640;2022-12-05T10:28:00;4.40;99.90
26342;DHT22;14054;50.108;8.640;2022-12-05T10:30:29;4.40;99.90
26342;DHT22;14054;50.108;8.640;2022-12-05T10:32:59;4.30;99.90
26342;DHT22;14054;50.108;8.640;2022-12-05T10:35:34;4.30;99.90
26342;DHT22;14054;50.108;8.640;2022-12-05T10:38:25;4.20;99.90
26342;DHT22;14054;50.108;8.640;2022-12-05T10:40:53;4.20;99.90
26342;DHT22;14054;50.108;8.640;2022-12-05T10:43:28;4.30;99.90
26342;DHT22;14054;50.108;8.640;2022-12-05T10:45:54;4.30;99.90
26342;DHT22;14054;50.108;8.640;2022-12-05T10:48:21;4.40;99.90
26342;DHT22;14054;50.108;8.640;2022-12-05T10:50:49;4.50;99.90
26342;DHT22;14054;50.108;8.640;2022-12-05T10:53:18;4.50;99.90
26342;DHT22;14054;50.108;8.640;2022-12-05T10:55:46;4.50;99.90
26342;DHT22;14054;50.108;8.640;2022-12-05T10:58:15;4.60;99.90
26342;DHT22;14054;50.108;8.640;2022-12-05T11:00:44;4.60;99.90
26342;DHT22;14054;50.108;8.640;2022-12-05T11:05:55;4.50;99.90
26342;DHT22;14054;50.108;8.640;2022-12-05T11:08:23;4.50;99.90
26342;DHT22;14054;50.108;8.640;2022-12-05T11:11:04;4.50;99.90
26342;DHT22;14054;50.108;8.640;2022-12-05T11:13:31;4.50;99.90
26342;DHT22;14054;50.108;8.640;2022-12-05T11:15:57;4.50;99.90
26342;DHT22;14054;50.108;8.640;2022-12-05T11:18:31;4.60;99.90
26342;DHT22;14054;50.108;8.640;2022-12-05T11:21:13;4.70;99.90
26342;DHT22;14054;50.108;8.640;2022-12-05T11:23:39;4.60;99.90
26342;DHT22;14054;50.108;8.640;2022-12-05T11:26:16;4.50;99.90
26342;DHT22;14054;50.108;8.640;2022-12-05T11:28:42;4.50;99.90
26342;DHT22;14054;50.108;8.640;2022-12-05T11:33:36;4.50;99.90
26342;DHT22;14054;50.108;8.640;2022-12-05T11:36:21;4.50;99.90
26342;DHT22;14054;50.108;8.640;2022-12-05T11:38:47;4.40;99.90
26342;DHT22;14054;50.108;8.640;2022-12-05T11:49:32;4.30;99.90
26342;DHT22;14054;50.108;8.640;2022-12-05T11:55:01;4.40;99.90
26342;DHT22;14054;50.108;8.640;2022-12-05T12:00:45;4.40;99.90
26342;DHT22;14054;50.108;8.640;2022-12-05T12:03:24;4.40;99.90
26342;DHT22;14054;50.108;8.640;2022-12-05T12:09:07;4.40;99.90
26342;DHT22;14054;50.108;8.640;2022-12-05T12:11:53;4.30;99.90
26342;DHT22;14054;50.108;8.640;2022-12-05T12:17:24;4.30;99.90
26342;DHT22;14054;50.108;8.640;2022-12-05T12:37:16;4.50;99.90
26342;DHT22;14054;50.108;8.640;2022-12-05T12:40:22;4.40;99.90
26342;DHT22;14054;50.108;8.640;2022-12-05T12:45:34;4.40;99.90
26342;DHT22;14054;50.108;8.640;2022-12-05T12:50:52;4.40;99.90
26342;DHT22;14054;50.108;8.640;2022-12-05T12:53:42;4.40;99.90
26342;DHT22;14054;50.108;8.640;2022-12-05T12:56:36;4.40;99.90
26342;DHT22;14054;50.108;8.640;2022-12-05T12:59:17;4.40;99.90
26342;DHT22;14054;50.108;8.640;2022-12-05T13:02:00;4.50;99.90
26342;DHT22;14054;50.108;8.640;2022-12-05T13:04:31;4.40;99.90
26342;DHT22;14054;50.108;8.640;2022-12-05T13:07:14;4.50;99.90
26342;DHT22;14054;50.108;8.640;2022-12-05T13:09:49;4.50;99.90
26342;DHT22;14054;50.108;8.640;2022-12-05T13:12:26;4.50;99.90
26342;DHT22;14054;50.108;8.640;2022-12-05T13:14:57;4.60;99.90
26342;DHT22;14054;50.108;8.640;2022-12-05T13:17:24;4.70;99.90
26342;DHT22;14054;50.108;8.640;2022-12-05T13:19:52;4.70;99.90
26342;DHT22;14054;50.108;8.640;2022-12-05T13:22:20;4.60;99.90
26342;DHT22;14054;50.108;8.640;2022-12-05T13:24:51;4.60;99.90
26342;DHT22;14054;50.108;8.640;2022-12-05T13:27:19;4.60;99.90
26342;DHT22;14054;50.108;8.640;2022-12-05T13:29:52;4.60;99.90
26342;DHT22;14054;50.108;8.640;2022-12-05T13:32:31;4.60;99.90
26342;DHT22;14054;50.108;8.640;2022-12-05T13:35:00;4.60;99.90
26342;DHT22;14054;50.108;8.640;2022-12-05T13:37:28;4.60;99.90
26342;DHT22;14054;50.108;8.640;2022-12-05T13:40:28;4.60;99.90
26342;DHT22;14054;50.108;8.640;2022-12-05T13:43:19;4.60;99.90
26342;DHT22;14054;50.108;8.640;2022-12-05T13:46:05;4.60;99.90
26342;DHT22;14054;50.108;8.640;2022-12-05T13:48:40;4.60;99.90
26342;DHT22;14054;50.108;8.640;2022-12-05T13:51:19;4.70;99.90
26342;DHT22;14054;50.108;8.640;2022-12-05T13:53:48;4.60;99.90
26342;DHT22;14054;50.108;8.640;2022-12-05T13:58:49;4.60;99.90
26342;DHT22;14054;50.108;8.640;2022-12-05T14:09:00;4.70;99.90
26342;DHT22;14054;50.108;8.640;2022-12-05T14:11:26;4.70;99.90
26342;DHT22;14054;50.108;8.640;2022-12-05T14:13:52;4.70;99.90
26342;DHT22;14054;50.108;8.640;2022-12-05T14:19:29;4.70;99.90
26342;DHT22;14054;50.108;8.640;2022-12-05T14:28:03;4.70;99.90
26342;DHT22;14054;50.108;8.640;2022-12-05T14:33:15;4.70;99.90
26342;DHT22;14054;50.108;8.640;2022-12-05T14:35:46;4.70;99.90
26342;DHT22;14054;50.108;8.640;2022-12-05T14:38:26;4.70;99.90
26342;DHT22;14054;50.108;8.640;2022-12-05T14:40:53;4.70;99.90
26342;DHT22;14054;50.108;8.640;2022-12-05T14:43:30;4.70;99.90
26342;DHT22;14054;50.108;8.640;2022-12-05T14:46:05;4.70;99.90
26342;DHT22;14054;50.108;8.640;2022-12-05T14:48:34;4.70;99.90
26342;DHT22;14054;50.108;8.640;2022-12-05T14:51:01;4.70;99.90
26342;DHT22;14054;50.108;8.640;2022-12-05T14:53:47;4.70;99.90
26342;DHT22;14054;50.108;8.640;2022-12-05T14:56:17;4.70;99.90
26342;DHT22;14054;50.108;8.640;2022-12-05T15:01:55;4.70;99.90
26342;DHT22;14054;50.108;8.640;2022-12-05T15:07:12;4.60;99.90
26342;DHT22;14054;50.108;8.640;2022-12-05T15:10:07;4.70;99.90
26342;DHT22;14054;50.108;8.640;2022-12-05T15:12:46;4.70;99.90
26342;DHT22;14054;50.108;8.640;2022-12-05T15:26:05;4.70;99.90
26342;DHT22;14054;50.108;8.640;2022-12-05T15:28:36;4.70;99.90
26342;DHT22;14054;50.108;8.640;2022-12-05T15:31:01;4.70;99.90
26342;DHT22;14054;50.108;8.640;2022-12-05T15:33:27;4.70;99.90
26342;DHT22;14054;50.108;8.640;2022-12-05T15:35:53;4.70;99.90
26342;DHT22;14054;50.108;8.640;2022-12-05T15:38:30;4.70;99.90
26342;DHT22;14054;50.108;8.640;2022-12-05T15:40:57;4.70;99.90
26342;DHT22;14054;50.108;8.640;2022-12-05T15:43:30;4.70;99.90
26342;DHT22;14054;50.108;8.640;2022-12-05T15:46:29;4.70;99.90
26342;DHT22;14054;50.108;8.640;2022-12-05T15:48:57;4.70;99.90
26342;DHT22;14054;50.108;8.640;2022-12-05T15:51:34;4.70;99.90
26342;DHT22;14054;50.108;8.640;2022-12-05T15:54:12;4.70;99.90
26342;DHT22;14054;50.108;8.640;2022-12-05T15:56:45;4.80;99.90
26342;DHT22;14054;50.108;8.640;2022-12-05T15:59:20;4.80;99.90
26342;DHT22;14054;50.108;8.640;2022-12-05T16:01:50;4.80;99.90
26342;DHT22;14054;50.108;8.640;2022-12-05T16:04:23;4.80;99.90
26342;DHT22;14054;50.108;8.640;2022-12-05T16:06:54;4.80;99.90
26342;DHT22;14054;50.108;8.640;2022-12-05T16:09:26;4.80;99.90
26342;DHT22;14054;50.108;8.640;2022-12-05T16:11:58;4.80;99.90
26342;DHT22;14054;50.108;8.640;2022-12-05T16:14:28;4.80;99.90
26342;DHT22;14054;50.108;8.640;2022-12-05T16:16:58;4.80;99.90
26342;DHT22;14054;50.108;8.640;2022-12-05T16:19:26;4.80;99.90
26342;DHT22;14054;50.108;8.640;2022-12-05T16:22:22;4.80;99.90
26342;DHT22;14054;50.108;8.640;2022-12-05T16:24:55;4.80;99.90
26342;DHT22;14054;50.108;8.640;2022-12-05T16:27:34;4.80;99.90
26342;DHT22;14054;50.108;8.640;2022-12-05T16:30:17;4.80;99.90
26342;DHT22;14054;50.108;8.640;2022-12-05T16:32:44;4.80;99.90
26342;DHT22;14054;50.108;8.640;2022-12-05T16:38:27;4.80;99.90
26342;DHT22;14054;50.108;8.640;2022-12-05T16:41:01;4.80;99.90
26342;DHT22;14054;50.108;8.640;2022-12-05T16:43:40;4.90;99.90
26342;DHT22;14054;50.108;8.640;2022-12-05T16:48:39;4.80;99.90
26342;DHT22;14054;50.108;8.640;2022-12-05T16:51:19;4.80;99.90
26342;DHT22;14054;50.108;8.640;2022-12-05T16:53:49;4.80;99.90
26342;DHT22;14054;50.108;8.640;2022-12-05T16:58:45;4.90;99.90
26342;DHT22;14054;50.108;8.640;2022-12-05T17:01:18;4.90;99.90
26342;DHT22;14054;50.108;8.640;2022-12-05T17:03:44;4.90;99.90
26342;DHT22;14054;50.108;8.640;2022-12-05T17:06:10;4.90;99.90
26342;DHT22;14054;50.108;8.640;2022-12-05T17:08:35;4.90;99.90
26342;DHT22;14054;50.108;8.640;2022-12-05T17:11:01;4.90;99.90
26342;DHT22;14054;50.108;8.640;2022-12-05T17:13:28;4.90;99.90
26342;DHT22;14054;50.108;8.640;2022-12-05T17:15:54;4.90;99.90
26342;DHT22;14054;50.108;8.640;2022-12-05T17:18:20;4.90;99.90
26342;DHT22;14054;50.108;8.640;2022-12-05T17:20:52;4.90;99.90
26342;DHT22;14054;50.108;8.640;2022-12-05T17:23:18;4.90;99.90
26342;DHT22;14054;50.108;8.640;2022-12-05T17:25:55;4.90;99.90
26342;DHT22;14054;50.108;8.640;2022-12-05T17:28:22;4.90;99.90
26342;DHT22;14054;50.108;8.640;2022-12-05T17:30:49;4.90;99.90
26342;DHT22;14054;50.108;8.640;2022-12-05T17:33:16;4.90;99.90
26342;DHT22;14054;50.108;8.640;2022-12-05T17:35:43;4.90;99.90
26342;DHT22;14054;50.108;8.640;2022-12-05T17:38:08;4.90;99.90
26342;DHT22;14054;50.108;8.640;2022-12-05T17:40:38;4.90;99.90
26342;DHT22;14054;50.108;8.640;2022-12-05T17:43:04;4.90;99.90
26342;DHT22;14054;50.108;8.640;2022-12-05T17:45:29;5.00;99.90
26342;DHT22;14054;50.108;8.640;2022-12-05T17:47:56;4.90;99.90
26342;DHT22;14054;50.108;8.640;2022-12-05T17:50:23;5.00;99.90
26342;DHT22;14054;50.108;8.640;2022-12-05T17:52:50;5.00;99.90
26342;DHT22;14054;50.108;8.640;2022-12-05T17:55:19;5.00;99.90
26342;DHT22;14054;50.108;8.640;2022-12-05T17:57:45;5.00;99.90
26342;DHT22;14054;50.108;8.640;2022-12-05T18:00:12;5.00;99.90
26342;DHT22;14054;50.108;8.640;2022-12-05T18:02:41;5.00;99.90
26342;DHT22;14054;50.108;8.640;2022-12-05T18:05:07;5.00;99.90
26342;DHT22;14054;50.108;8.640;2022-12-05T18:07:34;5.00;99.90
26342;DHT22;14054;50.108;8.640;2022-12-05T18:09:59;5.00;99.90
26342;DHT22;14054;50.108;8.640;2022-12-05T18:12:25;5.00;99.90
26342;DHT22;14054;50.108;8.640;2022-12-05T18:14:51;5.00;99.90
26342;DHT22;14054;50.108;8.640;2022-12-05T18:17:16;5.00;99.90